Time;durP1;ratioP1;P1;durP2;ratioP2;P2;SDS_P1;SDS_P2;PMS_P1;PMS_P2;Temp;Humidity;BMP_temperature;BMP_pressure;BME280_temperature;BME280_humidity;BME280_pressure;Samples;Min_cycle;Max_cycle;Signal;HPM_P1;HPM_P2
2024/01/18 00:00:55;;;;;;;32.30;19.47;;;;;;;2.80;100.00;98642.13;1491306;87;23186;-75
2024/01/18 00:03:22;;;;;;;25.60;15.97;;;;;;;2.80;100.00;98642.13;1467154;87;22221;-76
2024/01/18 00:05:48;;;;;;;15.60;10.97;;;;;;;2.94;100.00;98637.75;1484485;87;22237;-76
2024/01/18 00:08:14;;;;;;;15.17;9.37;;;;;;;3.17;100.00;98637.39;1491807;87;22353;-75
2024/01/18 00:10:41;;;;;;;13.33;7.60;;;;;;;3.44;100.00;98633.12;1479993;87;22381;-76
2024/01/18 00:13:07;;;;;;;13.63;7.03;;;;;;;3.75;100.00;98629.22;1484966;87;22328;-75
2024/01/18 00:15:33;;;;;;;15.83;8.37;;;;;;;4.01;100.00;98626.69;1488527;87;22204;-76
2024/01/18 00:17:59;;;;;;;9.00;6.83;;;;;;;4.22;100.00;98620.32;1482216;87;23164;-76
2024/01/18 00:20:27;;;;;;;9.67;6.50;;;;;;;4.42;100.00;98621.79;1483318;87;22191;-76
2024/01/18 00:22:53;;;;;;;10.17;5.93;;;;;;;4.71;100.00;98615.44;1478019;87;21514;-76
2024/01/18 00:25:20;;;;;;;10.03;6.60;;;;;;;4.71;100.00;98615.44;1486472;87;21692;-76
2024/01/18 00:27:46;;;;;;;9.73;5.33;;;;;;;4.88;100.00;98621.59;1483258;87;21537;-76
2024/01/18 00:30:13;;;;;;;10.90;6.47;;;;;;;4.98;100.00;98622.33;1481638;87;22475;-76
2024/01/18 00:32:40;;;;;;;11.07;5.83;;;;;;;5.07;100.00;98616.14;1463293;87;22334;-76
2024/01/18 00:35:07;;;;;;;9.30;5.43;;;;;;;5.16;100.00;98610.44;1477892;87;21484;-77
2024/01/18 00:37:33;;;;;;;7.33;4.60;;;;;;;5.22;100.00;98609.81;1487034;87;21623;-76
2024/01/18 00:39:59;;;;;;;11.23;5.90;;;;;;;5.30;100.00;98605.09;1480550;87;21462;-76
2024/01/18 00:42:26;;;;;;;9.23;4.70;;;;;;;5.35;100.00;98604.95;1480696;87;22490;-77
2024/01/18 00:44:52;;;;;;;8.67;4.90;;;;;;;5.40;100.00;98599.20;1482993;87;21433;-76
2024/01/18 00:47:18;;;;;;;7.57;5.30;;;;;;;5.46;100.00;98601.19;1486004;87;21448;-75
2024/01/18 00:49:44;;;;;;;8.07;4.13;;;;;;;5.50;100.00;98598.59;1480301;87;21536;-75
2024/01/18 00:52:11;;;;;;;8.87;5.00;;;;;;;5.55;100.00;98596.79;1490041;87;21617;-74
2024/01/18 00:54:37;;;;;;;6.93;3.77;;;;;;;5.59;100.00;98594.19;1484851;87;22437;-74
2024/01/18 00:57:03;;;;;;;6.20;3.80;;;;;;;5.64;100.00;98589.29;1486442;87;21570;-75
2024/01/18 00:59:30;;;;;;;9.97;5.23;;;;;;;5.68;100.00;98587.97;1475607;87;21522;-75
2024/01/18 01:01:56;;;;;;;8.07;4.73;;;;;;;5.74;100.00;98589.95;1491326;87;21617;-75
2024/01/18 01:04:22;;;;;;;6.93;4.03;;;;;;;5.78;100.00;98592.60;1485866;87;21470;-74
2024/01/18 01:06:48;;;;;;;8.37;4.80;;;;;;;5.82;100.00;98578.16;1486520;87;22468;-75
2024/01/18 01:09:14;;;;;;;8.77;4.33;;;;;;;5.86;100.00;98591.27;1467753;87;21640;-74
2024/01/18 01:11:41;;;;;;;6.20;4.53;;;;;;;5.90;100.00;98598.36;1456385;87;22460;-75
2024/01/18 01:14:07;;;;;;;6.67;4.57;;;;;;;5.95;100.00;98595.26;1489710;87;21441;-75
2024/01/18 01:16:33;;;;;;;6.50;4.50;;;;;;;5.96;100.00;98581.16;1462655;87;21499;-75
2024/01/18 01:18:59;;;;;;;9.07;4.50;;;;;;;6.00;100.00;98579.84;1491718;87;21470;-74
2024/01/18 01:21:25;;;;;;;9.07;4.53;;;;;;;6.03;100.00;98575.57;1464166;87;21587;-76
2024/01/18 01:23:52;;;;;;;7.37;4.93;;;;;;;6.06;100.00;98575.24;1480458;87;21499;-76
2024/01/18 01:26:18;;;;;;;11.77;8.03;;;;;;;6.02;100.00;98568.19;1481229;87;22535;-75
2024/01/18 01:28:44;;;;;;;15.00;10.43;;;;;;;5.89;100.00;98566.00;1482572;87;21513;-75
2024/01/18 01:31:10;;;;;;;17.40;12.77;;;;;;;5.71;100.00;98565.34;1488853;87;21610;-76
2024/01/18 01:33:36;;;;;;;22.50;14.37;;;;;;;5.54;100.00;98561.86;1485347;87;22401;-76
2024/01/18 01:36:05;;;;;;;24.17;14.70;;;;;;;5.35;100.00;98559.05;1483839;87;21611;-76
2024/01/18 01:38:31;;;;;;;24.07;13.07;;;;;;;5.23;100.00;98559.48;1482237;87;21566;-77
2024/01/18 01:40:58;;;;;;;12.33;9.10;;;;;;;5.10;100.00;98554.20;1484970;87;21476;-76
2024/01/18 01:43:24;;;;;;;10.27;6.23;;;;;;;5.09;100.00;98543.39;1485027;87;22504;-76
2024/01/18 01:45:50;;;;;;;8.20;4.50;;;;;;;5.13;100.00;98539.95;1483800;87;21574;-76
2024/01/18 01:48:17;;;;;;;6.13;4.20;;;;;;;5.24;100.00;98527.86;1479869;87;21434;-76
2024/01/18 01:50:43;;;;;;;15.53;7.40;;;;;;;5.39;100.00;98530.19;1485040;87;21463;-76
2024/01/18 01:53:11;;;;;;;7.30;4.40;;;;;;;5.51;100.00;98512.83;1476005;87;21441;-76
2024/01/18 01:55:39;;;;;;;9.33;5.20;;;;;;;5.61;100.00;98523.97;1478066;87;21485;-75
2024/01/18 01:58:07;;;;;;;7.67;4.83;;;;;;;5.70;100.00;98516.46;1488163;87;21492;-75
2024/01/18 02:00:34;;;;;;;5.13;3.73;;;;;;;5.80;100.00;98507.92;1484144;87;21640;-75
2024/01/18 02:03:00;;;;;;;8.43;4.70;;;;;;;5.89;100.00;98504.30;1486966;87;22283;-75
2024/01/18 02:05:27;;;;;;;7.67;3.97;;;;;;;5.97;100.00;98495.64;1486373;87;22402;-76
2024/01/18 02:07:55;;;;;;;8.47;5.23;;;;;;;6.04;100.00;98490.54;1481575;87;21731;-76
2024/01/18 02:10:22;;;;;;;10.77;4.50;;;;;;;6.09;100.00;98489.55;1494534;88;21382;-76
2024/01/18 02:12:52;;;;;;;4.30;3.13;;;;;;;6.14;100.00;98472.81;1488455;88;21448;-75
2024/01/18 02:15:21;;;;;;;6.70;3.77;;;;;;;6.19;100.00;98473.64;1493728;88;21455;-76
2024/01/18 02:17:48;;;;;;;5.27;3.67;;;;;;;6.21;100.00;98463.26;1458069;88;21555;-75
2024/01/18 02:20:14;;;;;;;5.00;3.53;;;;;;;6.24;100.00;98468.67;1479554;88;21455;-75
2024/01/18 02:22:45;;;;;;;6.73;4.27;;;;;;;6.28;100.00;98466.88;1485190;88;22010;-75
2024/01/18 02:25:21;;;;;;;5.50;3.67;;;;;;;6.32;100.00;98468.66;1480627;88;21605;-75
2024/01/18 02:27:47;;;;;;;7.97;3.00;;;;;;;6.35;100.00;98458.31;1476470;88;21592;-78
2024/01/18 02:30:14;;;;;;;5.47;3.97;;;;;;;6.39;100.00;98451.72;1483390;88;21493;-77
2024/01/18 02:32:40;;;;;;;6.00;3.70;;;;;;;6.41;100.00;98452.38;1481562;88;21470;-78
2024/01/18 02:35:07;;;;;;;7.13;4.03;;;;;;;6.43;100.00;98444.66;1488184;88;22239;-76
2024/01/18 02:37:34;;;;;;;7.37;4.27;;;;;;;6.47;100.00;98439.88;1470003;88;21691;-76
2024/01/18 02:40:00;;;;;;;8.10;3.97;;;;;;;6.49;100.00;98449.73;1487237;88;21426;-77
2024/01/18 02:42:27;;;;;;;5.73;3.17;;;;;;;6.51;100.00;98445.13;1481305;88;22335;-78
2024/01/18 02:44:55;;;;;;;7.57;2.90;;;;;;;6.51;100.00;98443.31;1486233;88;21492;-76
2024/01/18 02:47:23;;;;;;;4.80;3.23;;;;;;;6.54;100.00;98432.97;1462546;88;21691;-77
2024/01/18 02:50:15;;;;;;;7.03;4.13;;;;;;;6.59;100.00;98417.98;1480510;88;21551;-77
2024/01/18 02:52:44;;;;;;;8.07;3.77;;;;;;;6.64;100.00;98423.05;1485867;88;21485;-77
2024/01/18 02:55:10;;;;;;;5.53;3.07;;;;;;;6.69;100.00;98416.78;1486327;88;21500;-76
2024/01/18 02:57:37;;;;;;;5.33;2.90;;;;;;;6.75;100.00;98408.70;1486270;88;22485;-77
2024/01/18 03:00:05;;;;;;;6.83;3.37;;;;;;;6.77;100.00;98419.38;1490306;88;21846;-77
2024/01/18 03:02:31;;;;;;;3.60;2.47;;;;;;;6.79;100.00;98413.97;1483170;88;21659;-76
2024/01/18 03:04:57;;;;;;;5.83;3.03;;;;;;;6.78;100.00;98403.92;1477280;88;21455;-77
2024/01/18 03:07:23;;;;;;;5.00;2.90;;;;;;;6.80;100.00;98399.00;1485817;88;22252;-77
2024/01/18 03:09:49;;;;;;;5.03;2.80;;;;;;;6.82;100.00;98389.11;1484388;88;21515;-78
2024/01/18 03:12:16;;;;;;;5.57;2.90;;;;;;;6.82;100.00;98373.33;1470044;88;21485;-78
2024/01/18 03:14:42;;;;;;;5.30;3.10;;;;;;;6.86;100.00;98381.22;1486984;88;21655;-77
2024/01/18 03:17:09;;;;;;;7.10;3.20;;;;;;;6.87;100.00;98377.08;1482204;88;21515;-76
2024/01/18 03:19:35;;;;;;;5.63;2.97;;;;;;;6.89;100.00;98366.41;1479106;88;21581;-78
2024/01/18 03:22:01;;;;;;;5.23;3.27;;;;;;;6.90;100.00;98360.14;1465881;88;21566;-77
2024/01/18 03:24:27;;;;;;;3.70;2.90;;;;;;;6.91;100.00;98361.80;1465350;88;22461;-77
2024/01/18 03:26:54;;;;;;;3.37;2.37;;;;;;;6.92;100.00;98372.63;1478101;88;22754;-77
2024/01/18 03:29:20;;;;;;;5.70;3.63;;;;;;;6.90;100.00;98362.77;1489060;88;21823;-78
2024/01/18 03:31:46;;;;;;;4.53;3.50;;;;;;;6.93;100.00;98354.53;1482748;88;21592;-77
2024/01/18 03:34:12;;;;;;;4.03;2.60;;;;;;;6.93;100.00;98346.64;1461458;88;22409;-77
2024/01/18 03:36:39;;;;;;;5.30;3.40;;;;;;;6.93;100.00;98337.44;1466403;88;21434;-78
2024/01/18 03:39:06;;;;;;;5.60;2.57;;;;;;;6.94;100.00;98337.77;1477780;88;21611;-78
2024/01/18 03:41:32;;;;;;;5.07;2.83;;;;;;;6.94;100.00;98344.35;1482115;88;21492;-78
2024/01/18 03:43:59;;;;;;;4.50;2.80;;;;;;;6.94;100.00;98338.59;1488187;88;21462;-77
2024/01/18 03:46:25;;;;;;;4.43;3.07;;;;;;;6.95;100.00;98336.77;1481568;88;21426;-77
2024/01/18 03:48:51;;;;;;;6.23;3.83;;;;;;;6.96;100.00;98333.98;1484020;88;21471;-78
2024/01/18 03:51:18;;;;;;;10.23;4.73;;;;;;;6.96;100.00;98323.46;1479182;88;21559;-77
2024/01/18 03:53:44;;;;;;;9.03;5.20;;;;;;;6.99;100.00;98316.53;1479231;88;23058;-77
2024/01/18 03:56:12;;;;;;;4.57;2.90;;;;;;;7.00;100.00;98318.66;1480180;88;21426;-77
2024/01/18 03:58:41;;;;;;;6.83;3.73;;;;;;;7.00;100.00;98320.78;1487361;88;21530;-78
2024/01/18 04:01:08;;;;;;;4.10;3.13;;;;;;;7.01;100.00;98317.66;1459935;88;21530;-77
2024/01/18 04:03:34;;;;;;;6.33;2.93;;;;;;;7.01;100.00;98312.39;1479640;88;21500;-77
2024/01/18 04:06:00;;;;;;;4.30;2.40;;;;;;;7.01;100.00;98315.84;1479680;88;21619;-78
2024/01/18 04:08:27;;;;;;;5.43;3.00;;;;;;;7.02;100.00;98308.80;1486707;88;21470;-78
2024/01/18 04:10:53;;;;;;;5.10;2.87;;;;;;;7.03;100.00;98301.20;1495496;88;21456;-77
2024/01/18 04:13:19;;;;;;;5.73;3.60;;;;;;;7.02;100.00;98298.27;1481053;88;21441;-77
2024/01/18 04:15:45;;;;;;;4.13;2.73;;;;;;;7.03;100.00;98298.58;1481304;88;21703;-78
2024/01/18 04:18:12;;;;;;;4.17;2.40;;;;;;;7.04;100.00;98282.30;1485498;88;22298;-78
2024/01/18 04:20:38;;;;;;;5.43;2.63;;;;;;;7.04;100.00;98275.22;1472393;88;21455;-78
2024/01/18 04:23:04;;;;;;;3.37;2.30;;;;;;;7.05;100.00;98282.13;1472827;88;21498;-78
2024/01/18 04:25:31;;;;;;;3.57;2.50;;;;;;;7.06;100.00;98278.50;1480975;88;21544;-78
2024/01/18 04:27:57;;;;;;;9.47;3.20;;;;;;;7.10;100.00;98263.98;1459523;88;21693;-77
2024/01/18 04:30:23;;;;;;;4.33;2.80;;;;;;;7.12;100.00;98266.45;1483691;88;21448;-78
2024/01/18 04:32:49;;;;;;;4.67;2.43;;;;;;;7.14;100.00;98272.36;1464247;88;21477;-78
2024/01/18 04:35:16;;;;;;;7.23;2.73;;;;;;;7.16;100.00;98259.82;1481877;88;21448;-78
2024/01/18 04:37:42;;;;;;;3.93;2.50;;;;;;;7.17;100.00;98258.34;1490095;88;22519;-78
2024/01/18 04:40:10;;;;;;;5.70;3.40;;;;;;;7.21;100.00;98268.81;1486534;88;21463;-78
2024/01/18 04:42:36;;;;;;;5.13;2.30;;;;;;;7.23;100.00;98261.57;1488348;88;21485;-78
2024/01/18 04:45:02;;;;;;;5.27;3.20;;;;;;;7.27;100.00;98260.70;1465080;88;21427;-77
2024/01/18 04:47:29;;;;;;;5.53;3.00;;;;;;;7.27;100.00;98255.95;1486456;88;21478;-78
2024/01/18 04:49:57;;;;;;;4.73;2.80;;;;;;;7.32;100.00;98256.23;1478188;88;22513;-77
2024/01/18 04:52:23;;;;;;;4.00;2.47;;;;;;;7.34;100.00;98268.72;1483812;88;21405;-77
2024/01/18 04:54:49;;;;;;;5.40;2.80;;;;;;;7.36;100.00;98265.39;1465555;88;22417;-77
2024/01/18 04:57:15;;;;;;;4.30;2.53;;;;;;;7.36;100.00;98270.66;1486732;88;21625;-76
2024/01/18 04:59:41;;;;;;;4.10;2.63;;;;;;;7.37;100.00;98288.09;1479942;88;21626;-76
2024/01/18 05:02:08;;;;;;;3.37;2.63;;;;;;;7.39;100.00;98303.19;1482756;88;21647;-74
2024/01/18 05:04:34;;;;;;;4.73;2.67;;;;;;;7.37;100.00;98290.73;1494151;88;22328;-73
2024/01/18 05:07:00;;;;;;;5.20;3.93;;;;;;;7.39;100.00;98291.34;1459200;88;21610;-75
2024/01/18 05:09:27;;;;;;;2.60;2.30;;;;;;;7.38;100.00;98293.67;1481873;88;21544;-75
2024/01/18 05:11:53;;;;;;;4.60;3.17;;;;;;;7.38;100.00;98282.64;1476675;88;21500;-75
2024/01/18 05:14:21;;;;;;;5.03;3.50;;;;;;;7.41;100.00;98298.57;1477840;88;21470;-78
2024/01/18 05:16:51;;;;;;;3.83;2.83;;;;;;;7.42;100.00;98296.25;1480133;88;21619;-75
2024/01/18 05:19:16;;;;;;;5.20;2.87;;;;;;;7.44;100.00;98288.50;1481999;88;21463;-75
2024/01/18 05:21:42;;;;;;;6.93;3.50;;;;;;;7.45;100.00;98286.67;1460788;88;21692;-75
2024/01/18 05:24:08;;;;;;;4.90;3.10;;;;;;;7.45;100.00;98272.20;1478120;88;21448;-76
2024/01/18 05:26:36;;;;;;;6.53;4.30;;;;;;;7.43;100.00;98272.40;1481866;88;22122;-75
2024/01/18 05:29:02;;;;;;;5.43;3.00;;;;;;;7.43;100.00;98268.95;1484382;88;22349;-76
2024/01/18 05:31:29;;;;;;;5.83;3.37;;;;;;;7.41;100.00;98260.41;1475706;88;21470;-75
2024/01/18 05:33:56;;;;;;;7.53;4.27;;;;;;;7.41;100.00;98257.78;1485625;88;21529;-75
2024/01/18 05:36:22;;;;;;;4.93;3.50;;;;;;;7.39;100.00;98255.34;1482961;88;22285;-76
2024/01/18 05:38:48;;;;;;;7.07;4.40;;;;;;;7.37;100.00;98270.99;1481200;88;21596;-75
2024/01/18 05:41:14;;;;;;;8.47;5.00;;;;;;;7.36;100.00;98268.84;1474531;88;21463;-74
2024/01/18 05:43:40;;;;;;;7.57;4.97;;;;;;;7.37;100.00;98272.31;1489980;88;21425;-76
2024/01/18 05:46:08;;;;;;;6.03;3.53;;;;;;;7.37;100.00;98267.86;1482692;88;22491;-75
2024/01/18 05:48:34;;;;;;;8.37;3.60;;;;;;;7.39;100.00;98254.50;1486232;88;21464;-75
2024/01/18 05:51:01;;;;;;;4.70;2.97;;;;;;;7.38;100.00;98244.48;1463875;88;21543;-76
2024/01/18 05:53:27;;;;;;;4.57;2.90;;;;;;;7.42;100.00;98243.61;1487375;88;21494;-76
2024/01/18 05:55:53;;;;;;;5.07;3.03;;;;;;;7.41;100.00;98232.27;1483199;88;21629;-75
2024/01/18 05:58:19;;;;;;;4.47;2.87;;;;;;;7.43;100.00;98224.21;1488969;88;21441;-75
2024/01/18 06:00:46;;;;;;;7.13;3.07;;;;;;;7.45;100.00;98223.52;1471246;88;22583;-74
2024/01/18 06:03:12;;;;;;;4.93;3.43;;;;;;;7.43;100.00;98217.13;1478085;88;21507;-75
2024/01/18 06:05:38;;;;;;;5.70;3.47;;;;;;;7.46;100.00;98214.64;1480854;88;21533;-74
2024/01/18 06:08:06;;;;;;;5.77;3.37;;;;;;;7.47;100.00;98216.26;1485731;88;21440;-76
2024/01/18 06:10:33;;;;;;;5.23;3.47;;;;;;;7.51;100.00;98210.13;1480517;87;21522;-74
2024/01/18 06:13:00;;;;;;;5.90;3.07;;;;;;;7.53;100.00;98213.40;1486047;87;21656;-75
2024/01/18 06:15:26;;;;;;;5.30;2.67;;;;;;;7.55;100.00;98210.91;1482148;87;21592;-76
2024/01/18 06:17:52;;;;;;;6.67;2.80;;;;;;;7.59;100.00;98208.72;1460088;87;21456;-74
2024/01/18 06:20:18;;;;;;;5.00;2.87;;;;;;;7.62;100.00;98210.98;1477555;87;21605;-75
2024/01/18 06:22:45;;;;;;;4.67;3.67;;;;;;;7.62;100.00;98192.08;1482504;87;22387;-74
2024/01/18 06:25:11;;;;;;;9.50;3.97;;;;;;;7.65;100.00;98198.30;1474873;87;21537;-74
2024/01/18 06:27:37;;;;;;;5.00;3.70;;;;;;;7.66;100.00;98194.66;1487165;87;21448;-74
2024/01/18 06:30:10;;;;;;;6.47;3.53;;;;;;;7.67;100.00;98196.27;1482553;87;21441;-73
2024/01/18 06:32:33;;;;;;;5.97;2.97;;;;;;;7.67;100.00;98197.59;1485271;87;22064;-73
2024/01/18 06:34:59;;;;;;;5.57;2.80;;;;;;;7.69;100.00;98190.84;1481034;87;21537;-73
2024/01/18 06:37:25;;;;;;;6.30;3.73;;;;;;;7.71;100.00;98191.48;1464893;87;22386;-74
2024/01/18 06:39:52;;;;;;;5.83;3.17;;;;;;;7.69;100.00;98178.48;1464698;87;21551;-72
2024/01/18 06:42:18;;;;;;;5.33;3.63;;;;;;;7.66;100.00;98182.80;1485548;87;21815;-74
2024/01/18 06:44:46;;;;;;;7.50;3.73;;;;;;;7.67;100.00;98174.41;1483316;87;21485;-74
2024/01/18 06:47:12;;;;;;;4.80;3.37;;;;;;;7.68;100.00;98172.91;1481265;87;21647;-75
2024/01/18 06:49:38;;;;;;;3.77;2.73;;;;;;;7.67;100.00;98181.80;1488855;87;21478;-73
2024/01/18 06:52:05;;;;;;;5.63;3.53;;;;;;;7.69;100.00;98176.36;1481641;87;21463;-75
2024/01/18 06:54:31;;;;;;;6.77;3.30;;;;;;;7.68;100.00;98173.39;1479187;87;21493;-74
2024/01/18 06:56:57;;;;;;;3.83;3.07;;;;;;;7.73;100.00;98174.17;1483714;87;21625;-73
2024/01/18 06:59:24;;;;;;;4.80;3.37;;;;;;;7.73;100.00;98174.17;1482543;87;22483;-75
2024/01/18 07:01:50;;;;;;;4.80;4.20;;;;;;;7.74;100.00;98163.47;1481990;87;21714;-73
2024/01/18 07:04:17;;;;;;;7.47;3.37;;;;;;;7.75;100.00;98170.35;1493466;87;21470;-74
2024/01/18 07:06:43;;;;;;;6.90;4.27;;;;;;;7.78;100.00;98171.30;1482227;87;21568;-74
2024/01/18 07:09:10;;;;;;;5.60;3.70;;;;;;;7.84;100.00;98172.37;1482528;87;21544;-74
2024/01/18 07:11:40;;;;;;;5.07;3.90;;;;;;;7.87;100.00;98178.59;1486001;88;21418;-74
2024/01/18 07:14:07;;;;;;;4.67;3.87;;;;;;;7.89;100.00;98190.58;1481732;88;21514;-75
2024/01/18 07:16:33;;;;;;;5.77;3.40;;;;;;;7.90;100.00;98183.48;1482408;88;21655;-75
2024/01/18 07:18:59;;;;;;;6.83;4.10;;;;;;;7.91;100.00;98164.03;1484993;88;22233;-75
2024/01/18 07:21:25;;;;;;;5.93;3.70;;;;;;;7.94;100.00;98166.33;1465397;88;21396;-75
2024/01/18 07:23:52;;;;;;;5.23;3.60;;;;;;;7.95;100.00;98169.27;1488329;88;21575;-74
2024/01/18 07:26:19;;;;;;;7.07;4.17;;;;;;;7.96;100.00;98164.30;1484020;88;21448;-74
2024/01/18 07:28:45;;;;;;;5.27;3.23;;;;;;;7.98;100.00;98167.58;1486490;88;21604;-74
2024/01/18 07:31:11;;;;;;;5.53;3.43;;;;;;;8.03;100.00;98163.08;1486070;88;21434;-74
2024/01/18 07:33:37;;;;;;;9.03;3.50;;;;;;;8.07;100.00;98163.82;1486703;88;22571;-75
2024/01/18 07:36:05;;;;;;;7.20;2.83;;;;;;;8.10;100.00;98161.31;1485746;88;21522;-75
2024/01/18 07:38:31;;;;;;;3.67;2.70;;;;;;;8.12;100.00;98160.12;1458891;88;21592;-76
2024/01/18 07:40:58;;;;;;;7.70;2.90;;;;;;;8.16;100.00;98158.44;1477962;88;21426;-74
2024/01/18 07:43:24;;;;;;;7.53;3.47;;;;;;;8.18;100.00;98162.52;1462705;88;21721;-74
2024/01/18 07:45:50;;;;;;;3.83;2.70;;;;;;;8.20;100.00;98166.27;1469518;88;21448;-75
2024/01/18 07:48:17;;;;;;;5.37;3.00;;;;;;;8.18;100.00;98161.20;1487235;88;21626;-74
2024/01/18 07:50:43;;;;;;;9.67;4.30;;;;;;;8.20;100.00;98174.17;1484733;88;21507;-76
2024/01/18 07:53:11;;;;;;;9.67;3.73;;;;;;;8.18;100.00;98189.38;1458289;88;21491;-76
2024/01/18 07:55:37;;;;;;;5.50;3.60;;;;;;;8.20;100.00;98196.56;1482518;88;22250;-76
2024/01/18 07:58:04;;;;;;;7.40;3.30;;;;;;;8.20;100.00;98199.20;1481315;88;21581;-75
2024/01/18 08:00:30;;;;;;;7.60;4.40;;;;;;;8.21;100.00;98203.48;1479753;88;21469;-74
2024/01/18 08:02:56;;;;;;;6.73;4.23;;;;;;;8.23;100.00;98204.09;1483197;88;22519;-74
2024/01/18 08:05:24;;;;;;;7.33;4.43;;;;;;;8.21;100.00;98214.03;1476172;88;21374;-77
2024/01/18 08:07:50;;;;;;;7.90;4.90;;;;;;;8.22;100.00;98207.75;1478951;88;22358;-77
2024/01/18 08:10:17;;;;;;;11.30;3.70;;;;;;;8.23;100.00;98209.37;1483441;87;21566;-76
2024/01/18 08:12:44;;;;;;;6.63;4.07;;;;;;;8.23;100.00;98209.37;1482195;87;21360;-76
2024/01/18 08:15:12;;;;;;;7.10;5.00;;;;;;;8.24;100.00;98201.80;1487154;87;21307;-77
2024/01/18 08:17:38;;;;;;;5.60;4.13;;;;;;;8.25;100.00;98193.69;1405431;87;22101;-77
2024/01/18 08:20:12;;;;;;;6.07;4.43;;;;;;;8.28;100.00;98193.81;1407224;87;22186;-77
2024/01/18 08:22:34;;;;;;;7.63;4.83;;;;;;;8.29;100.00;98191.52;1402735;88;21352;-77
2024/01/18 08:25:00;;;;;;;7.30;4.03;;;;;;;8.31;100.00;98190.80;1407894;87;21420;-77
2024/01/18 08:27:27;;;;;;;8.00;5.23;;;;;;;8.32;100.00;98187.19;1413823;87;21460;-78
2024/01/18 08:29:53;;;;;;;7.40;4.50;;;;;;;8.33;100.00;98194.08;1391377;89;21405;-76
2024/01/18 08:32:19;;;;;;;9.40;5.13;;;;;;;8.34;100.00;98193.91;1407606;87;21242;-77
2024/01/18 08:34:45;;;;;;;7.37;4.40;;;;;;;8.35;100.00;98197.36;1407555;87;22187;-76
2024/01/18 08:37:12;;;;;;;12.07;4.67;;;;;;;8.35;100.00;98193.40;1391382;89;22124;-76
2024/01/18 08:39:38;;;;;;;8.57;5.37;;;;;;;8.36;100.00;98194.52;1406641;87;21250;-77
2024/01/18 08:42:05;;;;;;;11.17;4.87;;;;;;;8.37;100.00;98197.95;1409712;87;22219;-77
2024/01/18 08:44:31;;;;;;;8.63;4.83;;;;;;;8.39;100.00;98198.62;1404424;87;21397;-77
2024/01/18 08:46:58;;;;;;;9.03;4.80;;;;;;;8.39;100.00;98193.36;1407546;87;22130;-77
2024/01/18 08:49:24;;;;;;;6.77;4.63;;;;;;;8.39;100.00;98190.72;1407504;87;22137;-77
2024/01/18 08:51:52;;;;;;;6.30;3.93;;;;;;;8.40;100.00;98192.38;1407329;87;21441;-78
2024/01/18 08:54:20;;;;;;;10.00;5.20;;;;;;;8.42;100.00;98192.98;1406170;87;21390;-78
2024/01/18 08:56:47;;;;;;;7.40;4.23;;;;;;;8.44;100.00;98192.80;1405291;87;21257;-77
2024/01/18 08:59:13;;;;;;;11.40;4.43;;;;;;;8.44;100.00;98198.89;1406513;87;21501;-77
2024/01/18 09:01:39;;;;;;;9.67;5.30;;;;;;;8.45;100.00;98193.11;1425861;87;21374;-78
2024/01/18 09:04:06;;;;;;;6.13;4.63;;;;;;;8.48;100.00;98204.59;1467790;87;21455;-77
2024/01/18 09:06:32;;;;;;;5.60;3.60;;;;;;;8.49;100.00;98201.78;1479313;87;22262;-77
2024/01/18 09:08:58;;;;;;;5.47;3.60;;;;;;;8.51;100.00;98210.80;1470375;87;21507;-77
2024/01/18 09:11:24;;;;;;;4.77;3.50;;;;;;;8.53;100.00;98208.30;1490617;87;21514;-78
2024/01/18 09:13:51;;;;;;;8.47;5.47;;;;;;;8.53;100.00;98210.94;1475779;88;21360;-76
2024/01/18 09:16:17;;;;;;;8.87;4.80;;;;;;;8.53;100.00;98208.30;1488999;88;21406;-77
2024/01/18 09:18:43;;;;;;;10.80;6.23;;;;;;;8.54;100.00;98213.88;1456670;88;21566;-78
2024/01/18 09:21:10;;;;;;;6.67;4.23;;;;;;;8.55;100.00;98208.94;1484709;88;21360;-79
2024/01/18 09:23:37;;;;;;;11.90;5.23;;;;;;;8.53;100.00;98210.94;1481378;88;22582;-77
2024/01/18 09:26:03;;;;;;;8.93;5.37;;;;;;;8.51;100.00;98212.94;1404215;88;21391;-77
2024/01/18 09:28:30;;;;;;;7.83;4.83;;;;;;;8.50;100.00;98217.91;1563581;88;21256;-78
2024/01/18 09:30:57;;;;;;;10.33;5.23;;;;;;;8.48;100.00;98220.41;1405651;88;21450;-77
2024/01/18 09:33:23;;;;;;;11.57;5.23;;;;;;;8.49;100.00;98219.42;1411019;88;22137;-77
2024/01/18 09:35:51;;;;;;;12.63;6.50;;;;;;;8.47;100.00;98205.09;1567997;88;21205;-77
2024/01/18 09:38:19;;;;;;;13.53;8.03;;;;;;;8.48;100.00;98217.27;1544461;88;21375;-76
2024/01/18 09:40:46;;;;;;;20.43;12.63;;;;;;;8.50;100.00;98215.77;1404417;88;21390;-77
2024/01/18 09:43:15;;;;;;;32.23;21.57;;;;;;;8.50;100.00;98215.77;1410681;88;21242;-77
2024/01/18 09:45:47;;;;;;;14.10;9.53;;;;;;;8.56;100.00;98215.02;1402011;88;21235;-76
2024/01/18 09:48:14;;;;;;;19.27;12.00;;;;;;;8.62;100.00;98213.45;1568014;88;21279;-78
2024/01/18 09:50:44;;;;;;;11.97;5.87;;;;;;;8.69;100.00;98219.59;1404609;88;21301;-76
2024/01/18 09:53:12;;;;;;;16.97;8.43;;;;;;;8.75;100.00;98216.22;1561948;88;21250;-77
2024/01/18 09:55:39;;;;;;;16.27;8.90;;;;;;;8.81;100.00;98215.45;1403400;88;21265;-77
2024/01/18 09:58:12;;;;;;;26.23;13.40;;;;;;;8.84;100.00;98211.63;1405304;88;22086;-78
2024/01/18 10:00:46;;;;;;;23.60;11.13;;;;;;;8.88;100.00;98216.81;1401536;88;21301;-79
2024/01/18 10:03:12;;;;;;;28.77;15.40;;;;;;;8.91;100.00;98217.24;1480295;88;22130;-78
2024/01/18 10:05:41;;;;;;;33.70;12.33;;;;;;;8.95;100.00;98213.23;1567842;88;21414;-77
2024/01/18 10:08:08;;;;;;;21.60;11.10;;;;;;;8.96;100.00;98212.22;1402064;88;21331;-78
2024/01/18 10:10:34;;;;;;;12.93;7.10;;;;;;;8.98;100.00;98216.81;1393010;89;21375;-76
2024/01/18 10:13:05;;;;;;;15.07;7.20;;;;;;;8.99;100.00;98213.16;1557130;88;21264;-77
2024/01/18 10:15:35;;;;;;;16.57;9.40;;;;;;;9.01;100.00;98209.83;1398217;88;21280;-77
2024/01/18 10:18:03;;;;;;;15.97;9.13;;;;;;;9.03;100.00;98204.34;1563553;88;21272;-77
2024/01/18 10:20:29;;;;;;;14.20;8.27;;;;;;;9.06;100.00;98207.11;1400450;88;21235;-77
2024/01/18 10:22:56;;;;;;;13.77;7.47;;;;;;;9.09;100.00;98202.77;1407088;88;21301;-76
2024/01/18 10:25:26;;;;;;;12.50;8.07;;;;;;;9.10;100.00;98200.45;1401913;88;21323;-77
2024/01/18 10:27:55;;;;;;;12.45;7.97;;;;;;;9.09;100.00;98190.41;1397945;88;21295;-76
2024/01/18 10:30:22;;;;;;;15.60;9.13;;;;;;;9.08;100.00;98195.36;1561797;88;21420;-76
2024/01/18 10:32:49;;;;;;;17.63;9.60;;;;;;;9.09;100.00;98189.57;1407083;88;22113;-76
2024/01/18 10:35:28;;;;;;;17.40;9.87;;;;;;;9.09;100.00;98189.09;1563402;88;21368;-76
2024/01/18 10:38:05;;;;;;;16.87;9.43;;;;;;;9.11;100.00;98194.97;1563372;88;21346;-84
2024/01/18 10:40:36;;;;;;;13.60;8.63;;;;;;;9.12;100.00;98197.94;1540870;88;21353;-88
2024/01/18 10:43:04;;;;;;;15.40;7.78;;;;;;;9.11;100.00;98202.08;1490615;88;21360;-89
2024/01/18 10:45:32;;;;;;;15.23;8.13;;;;;;;9.11;100.00;98199.44;1543919;88;21479;-89
2024/01/18 10:47:58;;;;;;;10.40;7.27;;;;;;;9.07;100.00;98205.61;1400862;88;21397;-90
2024/01/18 10:50:30;;;;;;;15.03;8.57;;;;;;;9.04;100.00;98205.48;1409916;88;21456;-85
2024/01/18 10:52:54;;;;;;;17.87;8.77;;;;;;;9.02;100.00;98206.17;1476974;88;21551;-88
2024/01/18 10:55:20;;;;;;;23.80;12.83;;;;;;;9.00;100.00;98209.50;1476705;88;22522;-76
2024/01/18 10:57:46;;;;;;;19.90;10.83;;;;;;;9.00;100.00;98216.09;1477869;88;21515;-76
2024/01/18 11:00:16;;;;;;;15.60;10.67;;;;;;;8.97;100.00;98211.20;1480474;88;21368;-76
2024/01/18 11:02:44;;;;;;;12.77;6.30;;;;;;;8.94;100.00;98208.13;1478476;88;21398;-76
2024/01/18 11:05:14;;;;;;;11.63;5.67;;;;;;;8.92;100.00;98208.82;1472234;88;21530;-76
2024/01/18 11:07:41;;;;;;;8.47;5.17;;;;;;;8.88;100.00;98207.08;1477814;88;21515;-76
2024/01/18 11:10:12;;;;;;;9.53;5.63;;;;;;;8.85;100.00;98200.87;1467963;88;22259;-76
2024/01/18 11:12:47;;;;;;;11.07;5.73;;;;;;;8.83;100.00;98201.55;1480366;88;21640;-77
2024/01/18 11:15:15;;;;;;;17.60;7.77;;;;;;;8.79;100.00;98197.67;1486306;88;22572;-76
2024/01/18 11:17:54;;;;;;;11.47;7.33;;;;;;;8.76;100.00;98203.33;1478716;88;21367;-76
2024/01/18 11:20:21;;;;;;;13.30;8.23;;;;;;;8.74;100.00;98201.38;1481701;88;21523;-76
2024/01/18 11:22:47;;;;;;;12.40;6.50;;;;;;;8.73;100.00;98201.08;1478123;88;22349;-77
2024/01/18 11:25:24;;;;;;;13.47;5.83;;;;;;;8.75;100.00;98200.39;1477435;88;21515;-75
2024/01/18 11:27:52;;;;;;;12.17;6.03;;;;;;;8.73;100.00;98204.52;1480023;88;21580;-77
2024/01/18 11:30:39;;;;;;;16.00;8.20;;;;;;;8.70;100.00;98209.37;1480321;88;21337;-77